Latest Weather Observations for Mandora

IDW60801

Issued at 11:53 am WST Sunday 17 February 2019 (issued every 10 minutes, with the page automatically refreshed every 10 minutes)

About weather observations | Map of weather stations | Latest weather observations for WA | Other Formats
Station Details ID: 004019 Name: MANDORA Lat: -19.74 Lon: 120.84 Height: 7.5 m
Data from the previous 72 hours. | See also: Recent months at Mandora
Date/Time
WST
Temp
°C
App
Temp
°C
Dew
Point
°C
Rel
Hum
%
Delta-T
°C
Wind Press
QNH
hPa
Press
MSL
hPa
Rain since
9am
mm
Dir  Spd
km/h
Gust
km/h
Spd
kts
Gust
kts
17/11:30am 37.1 38.8 22.4 42 10.2 WNW 17 30 9 16 1008.5 1008.4 0.0
17/11:00am 36.4 38.0 22.2 44 9.8 WNW 17 26 9 14 1008.9 1008.8 0.0
17/10:30am 35.5 36.9 22.8 47 8.8 WNW 20 30 11 16 1009.2 1009.1 0.0
17/10:00am 34.9 36.9 23.6 52 7.9 WNW 19 28 10 15 1009.5 1009.4 0.0
17/09:30am 33.9 37.0 24.8 59 6.4 NW 17 24 9 13 1009.7 1009.6 0.0
17/09:00am 33.2 36.0 24.9 61 5.9 NW 19 28 10 15 1009.9 1009.8 0.0
17/08:30am 32.8 35.5 24.8 62 5.6 NW 19 26 10 14 1009.7 1009.6 0.0
17/08:00am 32.2 34.7 24.8 65 5.2 NW 20 30 11 16 1008.9 1008.8 0.0
17/07:30am 31.3 34.2 24.4 66 4.8 WNW 17 26 9 14 1008.9 1008.8 0.0
17/07:00am 30.2 33.3 24.8 73 3.8 WNW 17 26 9 14 1008.6 1008.5 0.0
17/06:30am 29.4 31.9 24.5 75 3.4 WNW 19 32 10 17 1008.3 1008.2 0.0
17/06:00am 28.9 31.2 24.5 77 3.1 NW 20 32 11 17 1008.1 1008.0 0.0
17/05:30am 29.0 30.8 24.8 78 2.9 NW 24 33 13 18 1008.1 1008.0 0.0
17/05:00am 29.0 30.7 24.1 75 3.4 NW 22 35 12 19 1008.1 1008.0 0.0
17/04:30am 28.8 31.2 24.6 78 2.9 NW 20 32 11 17 1008.1 1008.0 0.0
17/04:00am 28.7 31.5 25.3 82 2.4 NNW 20 30 11 16 1008.5 1008.4 0.0
17/03:30am 28.9 31.4 25.9 84 2.1 NNW 24 33 13 18 1008.7 1008.6 0.0
17/03:00am 29.7 32.6 26.5 83 2.3 NNW 24 37 13 20 1008.6 1008.5 0.0
17/02:30am 29.7 33.1 26.1 81 2.6 NNW 20 32 11 17 1008.2 1008.1 0.0
17/02:00am 29.8 32.9 26.8 84 2.2 NNW 24 37 13 20 1007.9 1007.8 0.0
17/01:36am 30.0 32.6 27.2 85 2.0 N 28 46 15 25 1007.9 1007.8 0.0
17/01:30am 30.0 34.8 27.4 86 1.9 N 17 30 9 16 1008.8 1008.7 0.0
17/01:00am 29.8 35.4 28.5 93 1.0 NNE 17 24 9 13 1009.5 1009.4 0.0
17/12:30am 29.4 37.1 29.2 99 0.1 NNE 9 13 5 7 1008.8 1008.7 0.0
17/12:00am 29.2 37.1 29.0 99 0.1 NNW 7 9 4 5 1008.7 1008.6 0.0
 
Date/Time
WST
Temp
°C
App
Temp
°C
Dew
Point
°C
Rel
Hum
%
Delta-T
°C
Wind Press
QNH
hPa
Press
MSL
hPa
Rain since
9am
mm
Dir  Spd
km/h
Gust
km/h
Spd
kts
Gust
kts
16/11:30pm 28.8 36.2 28.3 97 0.4 NW 7 9 4 5 1008.4 1008.3 0.0
16/11:00pm 28.8 36.0 28.1 96 0.5 NW 7 9 4 5 1008.2 1008.1 0.0
16/10:30pm 29.0 36.2 28.1 95 0.7 NNW 7 9 4 5 1008.3 1008.2 0.0
16/10:00pm 29.3 36.2 28.2 94 0.8 NW 9 15 5 8 1007.9 1007.8 0.0
16/09:30pm 29.5 36.4 28.2 93 0.9 NNW 9 13 5 7 1007.8 1007.7 0.0
16/09:00pm 29.6 36.5 28.2 92 1.0 NNW 9 11 5 6 1007.9 1007.8 0.0
16/08:30pm 29.9 36.7 28.1 90 1.3 NW 9 11 5 6 1007.7 1007.6 0.0
16/08:00pm 30.2 36.7 28.2 89 1.5 WNW 11 15 6 8 1007.2 1007.1 0.0
16/07:30pm 30.3 36.6 27.9 87 1.7 NNW 11 15 6 8 1006.8 1006.7 0.0
16/07:00pm 30.8 36.8 28.0 85 2.0 NNW 13 17 7 9 1006.5 1006.4 0.0
16/06:30pm 31.5 37.0 27.8 81 2.7 NNW 15 20 8 11 1006.2 1006.1 0.0
16/06:00pm 32.5 37.0 27.7 76 3.5 N 20 33 11 18 1005.9 1005.8 0.0
16/05:30pm 34.5 38.3 26.4 62 5.8 W 19 26 10 14 1005.2 1005.1 0.0
16/05:00pm 34.1 38.2 26.3 64 5.6 WNW 17 24 9 13 1005.5 1005.4 0.0
16/04:30pm 35.3 39.2 26.6 60 6.3 WNW 19 28 10 15 1005.6 1005.5 0.0
16/04:00pm 36.3 40.1 26.7 57 7.0 WNW 20 32 11 17 1005.8 1005.7 0.0
16/03:30pm 36.4 40.6 27.1 59 6.8 NW 19 28 10 15 1005.7 1005.6 0.0
16/03:00pm 37.2 40.3 25.7 52 8.3 WNW 20 28 11 15 1005.9 1005.8 0.0
16/02:30pm 37.1 40.3 25.9 52 8.1 NW 20 32 11 17 1006.3 1006.2 0.0
16/02:00pm 37.4 40.6 25.5 50 8.5 NW 19 28 10 15 1006.9 1006.8 0.0
16/01:30pm 38.1 41.3 25.5 48 9.0 NW 19 26 10 14 1007.3 1007.2 0.0
16/01:00pm 38.3 41.8 26.0 49 8.9 NW 19 26 10 14 1007.7 1007.6 0.0
16/12:30pm 39.0 42.8 25.3 46 9.8 NW 15 20 8 11 1008.1 1008.0 0.0
16/12:00pm 38.3 41.7 24.6 45 9.8 NW 15 22 8 12 1008.4 1008.3 0.0
16/11:30am 39.4 41.9 22.4 37 11.8 NW 13 20 7 11 1008.6 1008.5 0.0
16/11:00am 39.4 41.5 22.4 37 11.8 NW 15 24 8 13 1008.9 1008.8 0.0
16/10:30am 38.6 41.4 23.0 40 10.9 NNW 13 22 7 12 1009.3 1009.2 0.0
16/10:00am 41.5 42.7 16.8 23 16.1 SE 6 11 3 6 1009.4 1009.3 0.0
16/09:30am 39.9 40.6 17.9 27 14.5 SSW 11 20 6 11 1009.6 1009.5 0.0
16/09:00am 37.7 38.1 19.1 33 12.4 SSW 15 20 8 11 1009.9 1009.8 0.0
16/08:30am 35.7 37.5 20.4 40 10.3 S 11 20 6 11 1009.9 1009.8 0.0
16/08:00am 32.8 37.5 23.4 57 6.5 SSE 4 7 2 4 1009.8 1009.7 0.0
16/07:30am 28.8 35.5 25.4 82 2.4 CALM 0 0 0 0 1009.6 1009.5 0.0
16/07:00am 26.7 32.7 25.5 93 0.8 ESE 4 7 2 4 1009.7 1009.6 0.0
16/06:30am 25.4 30.2 24.4 94 0.7 E 7 11 4 6 1009.4 1009.3 0.0
16/06:00am 24.6 29.1 23.0 91 1.1 SW 4 6 2 3 1008.7 1008.6 0.0
16/05:30am 25.5 30.0 23.6 89 1.3 SW 6 7 3 4 1008.4 1008.3 0.0
16/05:00am 26.3 30.7 24.5 90 1.2 WSW 9 11 5 6 1008.3 1008.2 0.0
16/04:30am 26.6 31.7 25.0 91 1.1 WSW 7 11 4 6 1008.1 1008.0 0.0
16/04:00am 26.9 31.6 25.5 92 1.0 WSW 11 15 6 8 1008.0 1007.9 0.0
16/03:30am 26.7 31.4 24.9 90 1.3 W 9 11 5 6 1007.9 1007.8 0.0
16/03:00am 27.2 32.6 25.2 89 1.4 WSW 6 9 3 5 1007.9 1007.8 0.0
16/02:30am 27.7 32.9 25.1 86 1.8 WSW 7 9 4 5 1008.0 1007.9 0.0
16/02:00am 28.3 33.2 25.3 84 2.1 WSW 9 13 5 7 1008.0 1007.9 0.0
16/01:30am 28.7 33.4 25.5 83 2.3 WSW 11 17 6 9 1008.2 1008.1 0.0
16/01:00am 29.2 33.1 25.4 80 2.7 W 15 20 8 11 1008.6 1008.5 0.0
16/12:30am 29.5 33.2 25.7 80 2.7 W 17 24 9 13 1009.1 1009.0 0.0
16/12:00am 29.5 33.1 26.1 82 2.4 WSW 19 28 10 15 1009.3 1009.2 0.0
 
Date/Time
WST
Temp
°C
App
Temp
°C
Dew
Point
°C
Rel
Hum
%
Delta-T
°C
Wind Press
QNH
hPa
Press
MSL
hPa
Rain since
9am
mm
Dir  Spd
km/h
Gust
km/h
Spd
kts
Gust
kts
15/11:30pm 29.5 33.9 26.3 83 2.3 W 15 20 8 11 1009.4 1009.3 0.0
15/11:00pm 29.7 34.7 26.5 83 2.3 W 13 19 7 10 1009.8 1009.7 0.0
15/10:30pm 29.8 34.7 26.4 82 2.4 W 13 17 7 9 1010.0 1009.9 0.0
15/10:00pm 29.2 34.7 26.2 84 2.1 WNW 9 13 5 7 1009.9 1009.8 0.0
15/09:30pm 29.3 34.4 25.5 80 2.7 WNW 9 13 5 7 1009.6 1009.5 0.0
15/09:00pm 29.5 34.4 25.9 81 2.6 NW 11 15 6 8 1009.3 1009.2 0.0
15/08:30pm 30.3 36.1 26.0 78 3.1 WNW 7 13 4 7 1009.5 1009.4 0.0
15/08:00pm 30.6 35.3 26.1 77 3.2 W 13 20 7 11 1008.9 1008.8 0.0
15/07:30pm 30.7 34.7 26.2 77 3.2 W 17 22 9 12 1008.3 1008.2 0.0
15/07:00pm 31.1 35.2 26.4 76 3.4 W 17 24 9 13 1008.0 1007.9 0.0
15/06:30pm 31.7 34.8 26.3 73 3.9 W 22 32 12 17 1007.8 1007.7 0.0
15/06:00pm 33.1 35.8 25.6 64 5.3 W 22 30 12 16 1007.4 1007.3 0.0
15/05:30pm 34.1 35.6 24.9 58 6.5 W 26 37 14 20 1007.2 1007.1 0.0
15/05:00pm 35.5 38.0 25.4 56 7.2 W 22 35 12 19 1006.9 1006.8 0.0
15/04:30pm 36.0 37.6 25.2 53 7.7 W 26 39 14 21 1007.1 1007.0 0.0
15/04:00pm 35.9 38.4 26.0 56 7.1 WNW 24 35 13 19 1007.2 1007.1 0.0
15/03:30pm 36.4 39.1 26.2 55 7.4 WNW 24 33 13 18 1007.4 1007.3 0.0
15/03:00pm 37.7 40.3 25.5 49 8.8 WNW 22 33 12 18 1007.5 1007.4 0.0
15/02:30pm 37.5 40.0 25.3 49 8.7 WNW 22 33 12 18 1007.8 1007.7 0.0
15/02:00pm 37.6 40.1 25.4 49 8.8 WNW 22 32 12 17 1008.2 1008.1 0.0
15/01:30pm 37.2 39.3 25.4 51 8.4 WNW 24 33 13 18 1008.6 1008.5 0.0
15/01:00pm 37.2 39.9 26.3 53 7.9 WNW 24 33 13 18 1009.0 1008.9 0.0
15/12:30pm 37.7 40.3 26.1 51 8.4 WNW 24 33 13 18 1009.3 1009.2 0.0
15/12:00pm 37.9 41.6 26.3 51 8.4 WNW 19 28 10 15 1009.7 1009.6 0.0
15/11:30am 37.3 40.5 25.8 52 8.3 WNW 20 28 11 15 1010.1 1010.0 0.0
15/11:00am 37.6 41.3 25.7 50 8.6 WNW 17 24 9 13 1010.7 1010.6 0.0
15/10:30am 37.1 41.5 26.2 53 7.9 W 15 26 8 14 1011.4 1011.3 0.0
15/10:00am 36.7 40.4 25.2 51 8.2 WNW 15 20 8 11 1011.8 1011.7 0.0
15/09:30am 35.8 40.5 25.6 55 7.3 W 11 19 6 10 1012.2 1012.1 0.0
15/09:00am 34.2 38.4 24.7 57 6.7 W 11 17 6 9 1012.4 1012.3 0.0
15/08:30am 32.5 37.1 25.3 66 5.1 W 11 19 6 10 1012.4 1012.3 0.0
15/08:00am 31.2 35.7 25.8 73 3.8 WSW 13 17 7 9 1012.1 1012.0 0.0
15/07:30am 30.0 35.4 26.0 79 2.8 WSW 9 13 5 7 1012.1 1012.0 0.0
15/07:00am 28.3 33.8 26.1 88 1.6 WSW 9 15 5 8 1012.0 1011.9 0.0
15/06:30am 27.1 31.7 25.9 93 0.8 WSW 13 15 7 8 1011.3 1011.2 0.0
15/06:00am 26.8 31.9 25.6 93 0.8 WSW 9 13 5 7 1011.0 1010.9 0.0
15/05:30am 26.9 31.7 25.7 93 0.8 W 11 15 6 8 1010.8 1010.7 0.0
15/05:00am 27.1 32.2 25.5 91 1.1 W 9 13 5 7 1010.7 1010.6 0.0
15/04:30am 27.6 32.1 25.8 90 1.3 WSW 13 17 7 9 1010.4 1010.3 0.0
15/04:00am 27.8 31.8 26.2 91 1.1 SW 17 24 9 13 1010.6 1010.5 0.0
15/03:30am 26.8 31.3 25.8 94 0.7 WSW 13 20 7 11 1010.0 1009.9 0.0
15/03:00am 26.7 31.4 25.5 93 0.8 WSW 11 15 6 8 1009.6 1009.5 0.0
15/02:30am 26.7 31.4 25.5 93 0.8 WSW 11 13 6 7 1009.7 1009.6 0.0
15/02:00am 26.7 31.8 25.5 93 0.8 WSW 9 13 5 7 1009.7 1009.6 0.0
15/01:30am 26.8 32.2 25.4 92 1.0 WSW 7 9 4 5 1009.8 1009.7 0.0
15/01:00am 27.0 32.0 25.4 91 1.1 WSW 9 13 5 7 1010.2 1010.1 0.0
15/12:30am 27.1 32.2 25.5 91 1.1 WSW 9 11 5 6 1010.3 1010.2 0.0
15/12:00am 27.5 32.6 25.5 89 1.4 W 9 11 5 6 1010.6 1010.5 0.0
 
Date/Time
WST
Temp
°C
App
Temp
°C
Dew
Point
°C
Rel
Hum
%
Delta-T
°C
Wind Press
QNH
hPa
Press
MSL
hPa
Rain since
9am
mm
Dir  Spd
km/h
Gust
km/h
Spd
kts
Gust
kts
14/11:30pm 27.8 32.5 25.6 88 1.5 WSW 11 15 6 8 1010.9 1010.8 0.0
14/11:00pm 28.1 32.9 25.7 87 1.7 WSW 11 17 6 9 1011.3 1011.2 0.0
14/10:30pm 28.4 32.8 25.6 85 2.0 W 13 22 7 12 1011.3 1011.2 0.0
14/10:00pm 28.7 31.9 25.5 83 2.3 WSW 19 24 10 13 1011.7 1011.6 0.0
14/09:30pm 28.8 32.8 25.6 83 2.3 W 15 20 8 11 1011.3 1011.2 0.0
14/09:00pm 29.0 33.1 25.8 83 2.3 W 15 24 8 13 1011.3 1011.2 0.0
14/08:30pm 29.2 33.3 25.8 82 2.4 W 15 20 8 11 1011.1 1011.0 0.0
14/08:00pm 29.2 32.8 25.6 81 2.5 WNW 17 24 9 13 1010.5 1010.4 0.0
14/07:30pm 29.2 33.2 25.6 81 2.5 WNW 15 24 8 13 1009.9 1009.8 0.0
14/07:00pm 29.3 32.8 25.5 80 2.7 WNW 17 24 9 13 1009.5 1009.4 0.0
14/06:30pm 29.6 32.7 25.4 78 3.0 WNW 19 28 10 15 1009.4 1009.3 0.0
14/06:00pm 30.2 32.7 25.3 75 3.5 WNW 22 35 12 19 1009.3 1009.2 0.0
14/05:30pm 30.9 33.9 25.5 73 3.8 WNW 20 32 11 17 1009.0 1008.9 0.0
14/05:00pm 31.6 34.3 25.7 71 4.2 WNW 22 32 12 17 1008.7 1008.6 0.0
14/04:30pm 32.5 35.2 25.6 67 4.9 WNW 22 35 12 19 1008.5 1008.4 0.0
14/04:00pm 32.8 35.5 25.6 66 5.1 WNW 22 33 12 18 1008.7 1008.6 0.0
14/03:30pm 32.9 35.6 25.7 66 5.1 WNW 22 32 12 17 1008.7 1008.6 0.0
14/03:00pm 33.5 36.2 25.7 63 5.6 WNW 22 30 12 16 1008.8 1008.7 0.0
14/02:30pm 33.3 35.4 25.3 63 5.7 NW 24 33 13 18 1008.9 1008.8 0.0
14/02:00pm 33.2 36.0 25.2 63 5.7 WNW 20 35 11 19 1009.2 1009.1 0.0
14/01:30pm 33.7 36.2 25.4 62 5.9 WNW 22 35 12 19 1009.6 1009.5 0.0
14/01:00pm 33.9 36.8 25.9 63 5.7 NW 22 32 12 17 1009.9 1009.8 0.0
14/12:30pm 33.7 36.2 25.4 62 5.9 NW 22 32 12 17 1010.2 1010.1 0.0
14/12:00pm 33.5 36.8 25.7 63 5.6 NW 19 30 10 16 1010.6 1010.5 0.0

Other Formats:

Comma delimited format used in spreadsheet applications
http://www.bom.gov.au/fwo/IDW60801/IDW60801.94200.axf

JavaScript Object Notation format (JSON) in row-major order
http://www.bom.gov.au/fwo/IDW60801/IDW60801.94200.json